Data for 01/06/2011

Time Sea-Level Adjusted Pressure Absolute Pressure Temperature Relative Humidity Dew Point   
(mb) (inHg) (mb) (inHg) (C) (F) (%) (C) (F)
00:05 1021 30.15 850 25.1 1.8 35.2 63 -4.5 23.9
00:10 1021 30.15 850 25.1 1.7 35 64 -4.5 23.9
00:15 1021 30.15 850 25.1 1.6 35 64 -4.4 24.1
00:20 1021 30.15 850 25.1 1.6 34.8 64 -4.4 24
00:25 1021 30.15 850 25.1 1.5 34.7 65 -4.5 24
00:30 1021 30.15 850 25.1 1.5 34.7 65 -4.4 24
00:35 1021 30.15 850 25.1 1.5 34.7 65 -4.3 24.2
00:40 1021 30.15 850 25.1 1.6 34.9 64 -4.5 23.8
00:45 1021 30.15 850 25.1 1.8 35.2 65 -4.2 24.5
00:50 1021 30.15 850 25.1 1.6 34.9 66 -4.1 24.6
00:55 1021 30.15 850 25.1 1.5 34.8 66 -4.2 24.5
01:00 1021 30.15 850 25.1 1.6 34.8 66 -4.1 24.6
01:05 1021 30.15 850 25.1 1.5 34.8 66 -4.2 24.4
01:10 1021 30.15 850 25.1 1.6 34.9 65 -4.2 24.5
01:15 1021 30.15 850 25.1 1.6 34.8 65 -4.3 24.3
01:20 1021 30.15 850 25.1 1.8 35.2 63 -4.5 23.9
01:25 1021 30.15 850 25.1 1.9 35.4 63 -4.3 24.2
01:30 1021 30.15 850 25.1 1.9 35.3 64 -4.2 24.4
01:35 1021 30.15 850 25.1 1.9 35.4 63 -4.3 24.2
01:40 1021 30.15 850 25.1 2 35.5 65 -4 24.8
01:45 1021 30.15 850 25.1 2 35.5 63 -4.3 24.3
01:50 1021 30.15 850 25.1 2.1 35.8 62 -4.4 24.2
01:55 1021 30.15 850 25.1 2.2 36 64 -4 24.9
02:00 1021 30.15 850 25.1 2.3 36.1 63 -4.1 24.6
02:05 1021 30.15 850 25.1 2.2 36 63 -4 24.8
02:10 1021 30.15 850 25.1 1.9 35.5 65 -4 24.8
02:15 1021 30.15 850 25.1 1.9 35.4 64 -4.2 24.5
02:20 1021 30.15 850 25.1 2 35.5 64 -4.1 24.6
02:25 1021 30.15 850 25.1 2.1 35.7 64 -4 24.7
02:30 1021 30.15 850 25.1 2.2 35.9 64 -4 24.8
02:35 1021 30.15 850 25.1 2.4 36.2 63 -4 24.9
02:40 1021 30.15 850 25.1 2.5 36.5 63 -3.9 24.9
02:45 1021 30.15 850 25.1 2.6 36.7 61 -4.1 24.6
02:50 1021 30.15 851 25.13 2.9 37.2 61 -4 24.8
02:55 1021 30.15 851 25.13 3 37.4 62 -3.7 25.4
03:00 1021 30.15 851 25.13 3 37.3 62 -3.7 25.3
03:05 1021 30.15 851 25.13 2.8 37.1 64 -3.4 25.9
03:10 1022 30.18 851 25.13 2.6 36.7 65 -3.4 25.9
03:15 1022 30.18 851 25.13 2.5 36.6 64 -3.6 25.5
03:20 1022 30.18 851 25.13 2.5 36.5 64 -3.6 25.6
03:25 1022 30.18 851 25.13 2.4 36.3 64 -3.8 25.2
03:30 1022 30.18 851 25.13 2.4 36.3 63 -3.9 25.1
03:35 1022 30.18 851 25.13 2.5 36.5 63 -3.8 25.1
03:40 1022 30.18 851 25.13 2.6 36.7 62 -3.9 25.1
03:45 1022 30.18 851 25.13 2.6 36.7 63 -3.7 25.3
03:50 1022 30.18 851 25.13 2.5 36.4 63 -3.8 25.1
03:55 1022 30.18 851 25.13 2.5 36.4 64 -3.7 25.3
04:00 1022 30.18 851 25.13 2.4 36.2 63 -3.9 25
04:05 1022 30.18 851 25.13 2.4 36.3 62 -4 24.7
04:10 1022 30.18 851 25.13 2.6 36.7 63 -3.7 25.3
04:15 1022 30.18 851 25.13 2.6 36.7 63 -3.8 25.2
04:20 1022 30.18 851 25.13 2.5 36.5 63 -3.7 25.3
04:25 1022 30.18 851 25.13 2.5 36.5 63 -3.8 25.2
04:30 1022 30.18 851 25.13 2.6 36.6 62 -3.9 25
04:35 1021 30.15 851 25.13 2.8 37 62 -3.9 25
04:40 1021 30.15 851 25.13 2.8 37.1 62 -3.8 25.2
04:45 1021 30.15 851 25.13 2.8 37 63 -3.7 25.4
04:50 1021 30.15 851 25.13 2.7 36.9 61 -4 24.8
04:55 1021 30.15 851 25.13 3 37.4 61 -3.9 25.1
05:00 1022 30.18 851 25.13 2.9 37.2 62 -3.6 25.5
05:05 1021 30.15 851 25.13 2.8 37 63 -3.6 25.5
05:10 1021 30.15 851 25.13 2.7 36.9 63 -3.6 25.5
05:15 1021 30.15 850 25.1 2.8 37 62 -3.8 25.2
05:20 1021 30.15 850 25.1 2.9 37.3 61 -3.9 25
05:25 1021 30.15 850 25.1 3.1 37.6 60 -3.8 25.1
05:30 1021 30.15 850 25.1 3.1 37.6 62 -3.5 25.6
05:35 1021 30.15 850 25.1 2.9 37.3 63 -3.5 25.7
05:40 1021 30.15 850 25.1 2.8 37.1 63 -3.5 25.7
05:45 1021 30.15 850 25.1 2.7 36.8 65 -3.2 26.2
05:50 1021 30.15 850 25.1 2.3 36.2 66 -3.3 26.1
05:55 1021 30.15 850 25.1 2.1 35.7 67 -3.5 25.8
06:00 1021 30.15 850 25.1 2.2 35.9 66 -3.5 25.8
06:05 1021 30.15 850 25.1 2.2 35.9 67 -3.3 26
06:10 1021 30.15 850 25.1 2.2 36 67 -3.3 26.1
06:15 1021 30.15 850 25.1 2.3 36.1 66 -3.4 25.9
06:20 1021 30.15 850 25.1 2.3 36.1 66 -3.5 25.8
06:25 1021 30.15 850 25.1 2.3 36.1 66 -3.4 25.8
06:30 1021 30.15 850 25.1 2.3 36.2 66 -3.4 25.9
06:35 1021 30.15 850 25.1 2.3 36.2 67 -3.2 26.2
06:40 1021 30.15 851 25.13 2.2 35.9 66 -3.4 25.8
06:45 1021 30.15 850 25.1 2.3 36.2 66 -3.4 25.9
06:50 1021 30.15 850 25.1 2.4 36.4 65 -3.4 25.8
06:55 1021 30.15 850 25.1 2.6 36.6 65 -3.3 26.1
07:00 1021 30.15 851 25.13 2.6 36.6 66 -3.2 26.3
07:05 1021 30.15 851 25.13 2.6 36.7 65 -3.4 26
07:10 1021 30.15 851 25.13 2.8 37 65 -3.2 26.2
07:15 1022 30.18 851 25.13 2.7 36.9 65 -3.2 26.3
07:20 1021 30.15 851 25.13 2.9 37.1 64 -3.3 26.1
07:25 1021 30.15 851 25.13 3 37.4 65 -3 26.6
07:30 1021 30.15 851 25.13 2.9 37.3 65 -3 26.6
07:35 1021 30.15 851 25.13 3 37.3 64 -3.1 26.4
07:40 1021 30.15 851 25.13 3.1 37.5 64 -3 26.6
07:45 1021 30.15 850 25.1 3.1 37.6 64 -3 26.6
07:50 1021 30.15 850 25.1 3.1 37.5 65 -3 26.7
07:55 1021 30.15 850 25.1 3 37.4 65 -3 26.6
08:00 1021 30.15 850 25.1 2.9 37.3 65 -3 26.6
08:05 1021 30.15 850 25.1 2.9 37.2 65 -3 26.6
08:10 1021 30.15 850 25.1 2.9 37.3 64 -3.3 26
08:15 1021 30.15 850 25.1 3.5 38.3 62 -3.2 26.3
08:20 1021 30.15 850 25.1 3.7 38.7 61 -3.1 26.4
08:25 1021 30.15 850 25.1 3.8 38.8 60 -3.2 26.3
08:30 1021 30.15 850 25.1 4 39.1 61 -2.9 26.7
08:35 1021 30.15 850 25.1 3.7 38.7 63 -2.7 27.2
08:40 1021 30.15 850 25.1 3.7 38.6 63 -2.7 27.2
08:45 1021 30.15 850 25.1 3.8 38.9 62 -2.7 27.2
08:50 1021 30.15 850 25.1 3.9 39.1 63 -2.5 27.5
08:55 1021 30.15 850 25.1 4 39.3 62 -2.6 27.3
09:00 1021 30.15 850 25.1 4.4 39.9 62 -2.4 27.7
09:05 1021 30.15 850 25.1 4.5 40.1 61 -2.3 27.8
09:10 1021 30.15 850 25.1 4.5 40.1 62 -2.2 28.1
09:15 1021 30.15 850 25.1 4.4 40 62 -2.1 28.2
09:20 1021 30.15 850 25.1 4.3 39.7 63 -2.2 28.1
09:25 1021 30.15 850 25.1 4.4 39.9 61 -2.4 27.6
09:30 1021 30.15 850 25.1 4.7 40.4 60 -2.5 27.5
09:35 1021 30.15 850 25.1 4.9 40.7 60 -2.4 27.8
09:40 1021 30.15 850 25.1 4.8 40.6 59 -2.5 27.6
09:45 1021 30.15 850 25.1 4.7 40.4 59 -2.6 27.4
09:50 1021 30.15 850 25.1 4.9 40.9 57 -3 26.6
09:55 1021 30.15 850 25.1 5.3 41.6 57 -2.5 27.4
10:00 1021 30.15 850 25.1 5.1 41.2 59 -2.2 28
10:05 1020 30.12 850 25.1 4.7 40.5 60 -2.3 27.8
10:10 1021 30.15 850 25.1 4.6 40.3 61 -2.3 27.9
10:15 1020 30.12 850 25.1 4.5 40.1 61 -2.3 27.9
10:20 1020 30.12 850 25.1 4.6 40.2 61 -2.2 28
10:25 1020 30.12 850 25.1 4.7 40.4 61 -2.3 27.9
10:30 1020 30.12 850 25.1 4.8 40.7 60 -2.2 28
10:35 1020 30.12 850 25.1 5 40.9 58 -2.6 27.4
10:40 1020 30.12 850 25.1 5.2 41.3 56 -2.8 27
10:45 1021 30.15 850 25.1 5.3 41.6 56 -2.8 27
10:50 1021 30.15 850 25.1 5.6 42 55 -2.7 27.2
10:55 1020 30.12 850 25.1 5.6 42.1 56 -2.4 27.7
11:00 1020 30.12 849 25.07 5.6 42.1 56 -2.5 27.4
11:05 1020 30.12 850 25.1 5.6 42.1 56 -2.4 27.6
11:10 1020 30.12 849 25.07 5.6 42.2 55 -2.6 27.4
11:15 1020 30.12 849 25.07 5.8 42.4 56 -2.3 27.9
11:20 1020 30.12 849 25.07 5.7 42.2 56 -2.3 27.8
11:25 1020 30.12 849 25.07 5.7 42.3 56 -2.2 28
11:30 1020 30.12 849 25.07 6 42.8 56 -2.2 28
11:35 1020 30.12 849 25.07 6.1 43 54 -2.5 27.6
11:40 1020 30.12 849 25.07 6.2 43.2 54 -2.3 27.8
11:45 1020 30.12 849 25.07 6.3 43.4 53 -2.5 27.5
11:50 1020 30.12 849 25.07 6.4 43.5 54 -2.3 27.9
11:55 1020 30.12 849 25.07 6.5 43.7 53 -2.4 27.6
12:00 1020 30.12 849 25.07 6.9 44.3 52 -2.3 27.9
12:05 1020 30.12 849 25.07 7 44.5 52 -2.1 28.2
12:10 1020 30.12 849 25.07 6.9 44.5 52 -2.1 28.1
12:15 1020 30.12 849 25.07 7.1 44.8 52 -2.1 28.2
12:20 1020 30.12 849 25.07 7.2 45 51 -2.2 28
12:25 1019 30.09 849 25.07 7.3 45.2 50 -2.3 27.9
12:30 1019 30.09 849 25.07 7.5 45.5 51 -1.9 28.5
12:35 1019 30.09 848 25.04 7.6 45.6 50 -2.3 27.9
12:40 1019 30.09 848 25.04 7.7 45.9 49 -2.2 28
12:45 1019 30.09 848 25.04 7.7 45.9 50 -1.9 28.5
12:50 1019 30.09 848 25.04 7.7 45.9 51 -1.9 28.6
12:55 1019 30.09 848 25.04 7.6 45.6 51 -1.9 28.6
13:00 1019 30.09 848 25.04 7.5 45.6 51 -1.9 28.6
13:05 1019 30.09 848 25.04 7.4 45.3 54 -1.4 29.5
13:10 1019 30.09 848 25.04 7 44.6 55 -1.4 29.4
13:15 1019 30.09 848 25.04 6.8 44.2 55 -1.6 29.1
13:20 1019 30.09 848 25.04 6.8 44.2 55 -1.6 29.2
13:25 1019 30.09 848 25.04 6.7 44.1 56 -1.4 29.4
13:30 1019 30.09 848 25.04 6.6 43.8 57 -1.3 29.7
13:35 1019 30.09 848 25.04 6.4 43.6 57 -1.5 29.4
13:40 1019 30.09 848 25.04 6.5 43.6 57 -1.5 29.3
13:45 1019 30.09 848 25.04 6.6 43.9 56 -1.6 29.2
13:50 1019 30.09 848 25.04 6.6 43.9 55 -1.8 28.7
13:55 1019 30.09 848 25.04 6.9 44.4 55 -1.6 29.2
14:00 1019 30.09 848 25.04 6.7 44.1 55 -1.7 29
14:05 1019 30.09 848 25.04 6.9 44.4 54 -1.7 28.9
14:10 1019 30.09 848 25.04 7.1 44.7 54 -1.6 29.1
14:15 1019 30.09 848 25.04 7 44.6 54 -1.7 28.9
14:20 1019 30.09 848 25.04 7 44.5 55 -1.6 29.2
14:25 1019 30.09 848 25.04 7 44.6 54 -1.7 29
14:30 1019 30.09 848 25.04 7 44.6 55 -1.5 29.3
14:35 1019 30.09 848 25.04 6.9 44.4 54 -1.7 28.9
14:40 1019 30.09 848 25.04 7 44.6 54 -1.6 29.1
14:45 1019 30.09 848 25.04 7 44.6 54 -1.7 29
14:50 1018 30.06 848 25.04 7.1 44.8 54 -1.5 29.4
14:55 1018 30.06 848 25.04 7.1 44.7 54 -1.7 29
15:00 1018 30.06 848 25.04 7.1 44.7 54 -1.7 28.9
15:05 1018 30.06 848 25.04 7.2 45 53 -1.8 28.8
15:10 1018 30.06 848 25.04 7.2 44.9 54 -1.5 29.3
15:15 1018 30.06 848 25.04 6.9 44.4 55 -1.6 29.2
15:20 1018 30.06 848 25.04 6.8 44.2 55 -1.6 29.1
15:25 1018 30.06 848 25.04 6.5 43.7 56 -1.5 29.2
15:30 1018 30.06 848 25.04 6.5 43.7 56 -1.7 28.9
15:35 1019 30.09 848 25.04 6.5 43.7 55 -1.7 28.9
15:40 1019 30.09 848 25.04 6.6 43.8 56 -1.7 29
15:45 1019 30.09 848 25.04 6.8 44.2 55 -1.7 28.9
15:50 1018 30.06 848 25.04 6.5 43.7 56 -1.5 29.3
15:55 1019 30.09 848 25.04 6.4 43.5 55 -1.9 28.6
16:00 1019 30.09 848 25.04 6.6 43.8 56 -1.6 29.1
16:05 1019 30.09 848 25.04 6.4 43.5 56 -1.7 28.9
16:10 1019 30.09 848 25.04 6.6 43.9 55 -1.8 28.8
16:15 1019 30.09 848 25.04 6.7 44 55 -1.8 28.8
16:20 1019 30.09 848 25.04 6.8 44.3 55 -1.6 29.1
16:25 1019 30.09 848 25.04 6.7 44 56 -1.6 29.2
16:30 1019 30.09 848 25.04 6.6 43.9 55 -1.7 29
16:35 1019 30.09 848 25.04 6.8 44.2 55 -1.7 28.9
16:40 1019 30.09 848 25.04 6.8 44.2 54 -1.7 28.9
16:45 1019 30.09 848 25.04 6.7 44.1 55 -1.6 29.1
16:50 1019 30.09 848 25.04 6.8 44.2 55 -1.6 29.1
16:55 1019 30.09 848 25.04 6.7 44 56 -1.5 29.2
17:00 1019 30.09 848 25.04 6.8 44.2 55 -1.7 29
17:05 1019 30.09 848 25.04 6.7 44.1 56 -1.5 29.4
17:10 1019 30.09 848 25.04 6.6 43.9 56 -1.5 29.2
17:15 1019 30.09 848 25.04 6.6 43.8 57 -1.4 29.5
17:20 1019 30.09 848 25.04 6.5 43.6 57 -1.5 29.3
17:25 1019 30.09 848 25.04 6.3 43.3 58 -1.4 29.4
17:30 1019 30.09 848 25.04 6.2 43.2 57 -1.6 29.1
17:35 1019 30.09 848 25.04 6.2 43.2 58 -1.5 29.2
17:40 1019 30.09 848 25.04 6.2 43.2 57 -1.7 28.9
17:45 1019 30.09 848 25.04 6.2 43.2 57 -1.7 28.9
17:50 1019 30.09 848 25.04 6.1 43.1 58 -1.5 29.3
17:55 1019 30.09 848 25.04 6.1 43.1 57 -1.7 29
18:00 1019 30.09 848 25.04 6.2 43.1 57 -1.7 28.9
18:05 1019 30.09 848 25.04 6.2 43.1 57 -1.8 28.8
18:10 1019 30.09 848 25.04 6.3 43.3 57 -1.6 29
18:15 1019 30.09 849 25.07 6.3 43.3 58 -1.4 29.4
18:20 1019 30.09 849 25.07 6 42.8 59 -1.3 29.7
18:25 1019 30.09 849 25.07 5.7 42.3 60 -1.3 29.6
18:30 1019 30.09 849 25.07 5.5 41.9 62 -1.3 29.7
18:35 1019 30.09 849 25.07 5.3 41.6 62 -1.4 29.5
18:40 1020 30.12 849 25.07 5.4 41.7 62 -1.3 29.6
18:45 1020 30.12 849 25.07 5.4 41.7 62 -1.4 29.5
18:50 1020 30.12 849 25.07 5.5 41.9 60 -1.6 29.1
18:55 1020 30.12 849 25.07 5.9 42.6 58 -1.7 29
19:00 1020 30.12 849 25.07 6 42.8 60 -1.2 29.8
19:05 1020 30.12 849 25.07 5.7 42.3 61 -1.1 30
19:10 1020 30.12 849 25.07 5.4 41.7 63 -1.1 30.1
19:15 1019 30.09 849 25.07 5.2 41.3 64 -1.2 29.9
19:20 1019 30.09 849 25.07 5.1 41.2 63 -1.2 29.8
19:25 1019 30.09 849 25.07 5.2 41.3 63 -1.2 29.8
19:30 1019 30.09 849 25.07 5.2 41.3 63 -1.2 29.8
19:35 1020 30.12 849 25.07 5.1 41.2 63 -1.3 29.7
19:40 1020 30.12 849 25.07 4.9 40.9 65 -1.2 29.9
19:45 1020 30.12 849 25.07 4.6 40.4 66 -1.2 29.8
19:50 1019 30.09 849 25.07 4.4 39.9 66 -1.4 29.4
19:55 1019 30.09 849 25.07 4.3 39.8 66 -1.5 29.3
20:00 1019 30.09 849 25.07 4.3 39.7 66 -1.6 29.2
20:05 1020 30.12 849 25.07 4.2 39.6 67 -1.4 29.4
20:10 1020 30.12 849 25.07 4.1 39.5 67 -1.4 29.5
20:15 1020 30.12 849 25.07 4.2 39.5 67 -1.4 29.5
20:20 1020 30.12 849 25.07 4.2 39.5 67 -1.4 29.5
20:25 1020 30.12 849 25.07 4.2 39.5 67 -1.4 29.4
20:30 1020 30.12 849 25.07 4.2 39.5 67 -1.3 29.6
20:35 1020 30.12 849 25.07 4.2 39.6 67 -1.4 29.5
20:40 1020 30.12 849 25.07 4.2 39.5 67 -1.4 29.6
20:45 1020 30.12 849 25.07 4.2 39.5 67 -1.4 29.5
20:50 1020 30.12 849 25.07 4.1 39.4 67 -1.5 29.3
20:55 1020 30.12 849 25.07 4.2 39.5 67 -1.4 29.5
21:00 1020 30.12 849 25.07 4.1 39.4 67 -1.4 29.5
21:05 1020 30.12 849 25.07 4.1 39.3 68 -1.3 29.7
21:10 1020 30.12 849 25.07 3.8 38.9 69 -1.3 29.7
21:15 1020 30.12 849 25.07 3.7 38.6 70 -1.4 29.5
21:20 1020 30.12 849 25.07 3.6 38.5 70 -1.4 29.5
21:25 1020 30.12 849 25.07 3.6 38.5 70 -1.4 29.4
21:30 1020 30.12 849 25.07 3.6 38.5 70 -1.4 29.5
21:35 1020 30.12 849 25.07 3.6 38.5 71 -1.2 29.8
21:40 1020 30.12 849 25.07 3.4 38.2 72 -1.2 29.8
21:45 1020 30.12 849 25.07 3.3 37.9 72 -1.4 29.5
21:50 1020 30.12 849 25.07 3.3 37.9 71 -1.5 29.3
21:55 1020 30.12 849 25.07 3.2 37.8 72 -1.4 29.5
22:00 1020 30.12 849 25.07 3.2 37.7 72 -1.5 29.4
22:05 1020 30.12 849 25.07 3.2 37.8 71 -1.5 29.3
22:10 1020 30.12 849 25.07 3.3 37.9 71 -1.5 29.4
22:15 1020 30.12 849 25.07 3.3 37.9 71 -1.5 29.3
22:20 1020 30.12 849 25.07 3.3 37.9 71 -1.5 29.3
22:25 1020 30.12 849 25.07 3.2 37.8 72 -1.3 29.6
22:30 1020 30.12 849 25.07 3.2 37.7 73 -1.3 29.7
22:35 1020 30.12 849 25.07 3.1 37.5 73 -1.3 29.7
22:40 1020 30.12 849 25.07 2.9 37.2 74 -1.4 29.5
22:45 1020 30.12 849 25.07 2.9 37.2 74 -1.2 29.8
22:50 1020 30.12 849 25.07 2.8 37.1 74 -1.3 29.6
22:55 1020 30.12 849 25.07 2.8 37.1 75 -1.2 29.8
23:00 1020 30.12 849 25.07 2.9 37.2 74 -1.3 29.6
23:05 1020 30.12 849 25.07 3 37.3 73 -1.4 29.4
23:10 1020 30.12 849 25.07 3 37.4 73 -1.5 29.3
23:15 1020 30.12 849 25.07 3 37.4 73 -1.4 29.5
23:20 1020 30.12 849 25.07 2.9 37.3 74 -1.3 29.7
23:25 1020 30.12 849 25.07 2.9 37.2 74 -1.4 29.6
23:30 1020 30.12 850 25.1 2.9 37.1 74 -1.3 29.6
23:35 1020 30.12 850 25.1 3 37.3 73 -1.5 29.4
23:40 1020 30.12 850 25.1 3 37.4 74 -1.3 29.7
23:45 1020 30.12 850 25.1 3 37.4 74 -1.3 29.7
23:50 1020 30.12 850 25.1 2.9 37.3 73 -1.4 29.5
23:55 1020 30.12 850 25.1 3 37.3 74 -1.3 29.7
24:00 1020 30.12 850 25.1 3 37.4 72 -1.5 29.4